Time;durP1;ratioP1;P1;durP2;ratioP2;P2;SDS_P1;SDS_P2;PMS_P1;PMS_P2;Temp;Humidity;BMP_temperature;BMP_pressure;BME280_temperature;BME280_humidity;BME280_pressure;Samples;Min_cycle;Max_cycle;Signal;HPM_P1;HPM_P2
2023/04/06 00:00:03;;;;;;;0.70;0.70;;;;;;;3.39;91.09;99173.72;5033686;28;20636;-58
2023/04/06 00:02:31;;;;;;;1.20;1.20;;;;;;;3.56;91.42;99209.91;5033656;28;20316;-58
2023/04/06 00:04:58;;;;;;;0.70;0.70;;;;;;;3.55;92.05;99208.25;5025639;28;20198;-58
2023/04/06 00:07:25;;;;;;;0.60;0.60;;;;;;;3.46;92.26;99200.66;5017359;28;20228;-58
2023/04/06 00:09:52;;;;;;;1.00;1.00;;;;;;;3.44;92.38;99199.84;5021935;28;20198;-58
2023/04/06 00:12:19;;;;;;;0.60;0.60;;;;;;;3.29;92.36;99188.13;5022825;28;20271;-58
2023/04/06 00:14:46;;;;;;;0.63;0.63;;;;;;;3.32;92.54;99192.31;5022933;28;20644;-59
2023/04/06 00:17:12;;;;;;;0.70;0.70;;;;;;;3.29;92.44;99192.31;5020047;28;20206;-59
2023/04/06 00:19:41;;;;;;;0.60;0.60;;;;;;;3.27;92.66;99192.31;5021630;28;20206;-58
2023/04/06 00:22:07;;;;;;;0.60;0.60;;;;;;;3.25;93.13;99190.66;5023567;28;20267;-58
2023/04/06 00:24:34;;;;;;;0.60;0.60;;;;;;;3.28;93.22;99185.56;5021890;28;20673;-58
2023/04/06 00:27:02;;;;;;;1.03;1.03;;;;;;;3.27;92.81;99181.34;5021467;28;20229;-58
2023/04/06 00:29:29;;;;;;;0.60;0.60;;;;;;;3.22;92.81;99183.06;5026831;28;20201;-58
2023/04/06 00:31:55;;;;;;;0.70;0.70;;;;;;;3.23;92.74;99184.75;5023378;28;20202;-58
2023/04/06 00:34:22;;;;;;;0.80;0.80;;;;;;;3.22;92.29;99170.41;5021957;28;20208;-59
2023/04/06 00:36:50;;;;;;;0.67;0.67;;;;;;;3.22;92.34;99172.94;5024226;28;20205;-58
2023/04/06 00:39:17;;;;;;;0.70;0.70;;;;;;;3.23;92.35;99169.56;5023724;28;20197;-58
2023/04/06 00:41:49;;;;;;;0.80;0.80;;;;;;;3.16;91.76;99156.09;5022145;28;20224;-58
2023/04/06 00:44:16;;;;;;;0.60;0.60;;;;;;;3.23;91.45;99167.03;5021464;28;20288;-58
2023/04/06 00:46:43;;;;;;;1.33;1.33;;;;;;;3.21;91.87;99159.44;5022173;28;20731;-59
2023/04/06 00:49:10;;;;;;;0.90;0.90;;;;;;;3.23;91.34;99162.81;5029043;28;20201;-59
2023/04/06 00:51:37;;;;;;;0.70;0.70;;;;;;;3.23;91.94;99167.88;5027278;28;20581;-59
2023/04/06 00:54:06;;;;;;;0.70;0.70;;;;;;;3.21;92.07;99159.44;5021909;28;20206;-58
2023/04/06 00:56:33;;;;;;;0.70;0.70;;;;;;;3.26;91.91;99167.00;5018099;28;20209;-59
2023/04/06 00:59:00;;;;;;;0.80;0.80;;;;;;;3.18;92.40;99150.16;5031396;28;20209;-58
2023/04/06 01:01:28;;;;;;;0.70;0.70;;;;;;;3.17;92.73;99161.13;5021648;28;20703;-58
2023/04/06 01:03:55;;;;;;;0.60;0.60;;;;;;;3.12;93.36;99155.25;5028575;28;20275;-59
2023/04/06 01:06:22;;;;;;;0.70;0.70;;;;;;;3.06;93.84;99155.28;5032299;28;20197;-58
2023/04/06 01:08:48;;;;;;;0.97;0.97;;;;;;;3.07;93.60;99151.88;5032222;28;20680;-59
2023/04/06 01:11:18;;;;;;;0.90;0.90;;;;;;;3.06;94.19;99155.28;5032069;28;20208;-58
2023/04/06 01:13:44;;;;;;;0.70;0.70;;;;;;;3.03;94.00;99156.97;5031880;28;20562;-59
2023/04/06 01:16:11;;;;;;;0.73;0.73;;;;;;;3.01;94.08;99154.44;5032150;28;20269;-58
2023/04/06 01:18:39;;;;;;;0.80;0.80;;;;;;;3.02;94.23;99148.53;5032125;28;20201;-58
2023/04/06 01:21:08;;;;;;;0.60;0.60;;;;;;;2.96;94.49;99140.97;5031582;28;20217;-58
2023/04/06 01:23:36;;;;;;;0.70;0.70;;;;;;;2.97;94.49;99144.34;5032006;28;20208;-58
2023/04/06 01:26:03;;;;;;;0.70;0.70;;;;;;;2.96;94.83;99138.44;5031571;28;20256;-58
2023/04/06 01:28:30;;;;;;;0.67;0.67;;;;;;;2.96;94.00;99132.53;5031825;28;20201;-58
2023/04/06 01:30:56;;;;;;;0.60;0.60;;;;;;;2.91;93.98;99137.59;5031579;28;20369;-59
2023/04/06 01:33:23;;;;;;;0.60;0.60;;;;;;;2.92;94.50;99130.84;5031750;28;20198;-58
2023/04/06 01:35:50;;;;;;;0.60;0.60;;;;;;;2.89;94.50;99130.88;5031830;28;20198;-59
2023/04/06 01:38:17;;;;;;;0.90;0.90;;;;;;;2.84;95.06;99127.53;5031689;28;20292;-58
2023/04/06 01:40:45;;;;;;;0.80;0.80;;;;;;;2.83;95.46;99125.84;5031614;28;20194;-58
2023/04/06 01:43:12;;;;;;;1.77;1.67;;;;;;;2.74;95.57;99125.88;5031529;28;20200;-59
2023/04/06 01:45:39;;;;;;;1.37;1.37;;;;;;;2.66;95.94;99118.28;5031380;28;20198;-58
2023/04/06 01:48:06;;;;;;;0.70;0.70;;;;;;;2.73;95.67;99125.03;5031658;28;20666;-59
2023/04/06 01:50:33;;;;;;;0.70;0.70;;;;;;;2.75;95.30;99108.13;5031610;28;20220;-58
2023/04/06 01:53:00;;;;;;;0.60;0.60;;;;;;;2.76;94.99;99107.28;5031436;28;20255;-58
2023/04/06 01:55:27;;;;;;;0.60;0.60;;;;;;;2.74;95.06;99103.09;5030267;28;20590;-58
2023/04/06 01:57:55;;;;;;;0.70;0.70;;;;;;;2.71;95.15;99110.69;5031385;28;20600;-58
2023/04/06 02:00:22;;;;;;;0.63;0.63;;;;;;;2.66;95.13;99098.03;5031242;28;20208;-59
2023/04/06 02:02:48;;;;;;;0.60;0.60;;;;;;;2.67;95.50;99104.81;5031086;28;20260;-58
2023/04/06 02:05:15;;;;;;;0.60;0.60;;;;;;;2.61;95.33;99110.72;5031198;28;20197;-58
2023/04/06 02:07:42;;;;;;;0.60;0.60;;;;;;;2.64;95.13;99109.88;5031369;28;20208;-58
2023/04/06 02:10:13;;;;;;;0.70;0.70;;;;;;;2.65;95.23;99109.00;5030738;28;20197;-58
2023/04/06 02:12:39;;;;;;;0.80;0.80;;;;;;;2.65;95.15;99099.72;5026607;28;20213;-58
2023/04/06 02:15:09;;;;;;;0.60;0.60;;;;;;;2.71;95.26;99101.41;5026980;28;20202;-59
2023/04/06 02:17:36;;;;;;;0.73;0.73;;;;;;;2.64;95.38;99107.34;5031048;28;20206;-58
2023/04/06 02:20:02;;;;;;;0.70;0.70;;;;;;;2.60;95.95;99105.66;5030991;28;20233;-58
2023/04/06 02:22:29;;;;;;;0.70;0.70;;;;;;;2.55;95.68;99105.66;5030959;28;20249;-58
2023/04/06 02:24:56;;;;;;;0.60;0.60;;;;;;;2.50;96.19;99091.34;5031323;28;20708;-58
2023/04/06 02:27:23;;;;;;;0.70;0.70;;;;;;;2.56;96.04;99117.47;5031078;28;20208;-58
2023/04/06 02:29:50;;;;;;;0.60;0.60;;;;;;;2.36;96.26;99093.09;5030864;28;20204;-58
2023/04/06 02:32:18;;;;;;;0.70;0.70;;;;;;;2.49;96.56;99120.00;5031055;28;20199;-59
2023/04/06 02:34:45;;;;;;;0.77;0.77;;;;;;;2.46;96.71;99125.09;5030979;28;20279;-58
2023/04/06 02:37:11;;;;;;;0.70;0.70;;;;;;;2.47;96.71;99116.66;5030972;28;20194;-58
2023/04/06 02:39:38;;;;;;;0.77;0.77;;;;;;;2.32;96.87;99092.25;5030834;28;20201;-58
2023/04/06 02:42:05;;;;;;;0.87;0.87;;;;;;;2.41;96.92;99111.63;5030927;28;20600;-58
2023/04/06 02:44:32;;;;;;;0.73;0.73;;;;;;;2.33;97.05;99100.66;5028450;28;20225;-58
2023/04/06 02:46:58;;;;;;;0.70;0.70;;;;;;;2.44;97.49;99116.66;5031170;28;20620;-58
2023/04/06 02:49:26;;;;;;;0.80;0.80;;;;;;;2.36;97.41;99103.22;5031000;28;20264;-57
2023/04/06 02:51:53;;;;;;;0.80;0.80;;;;;;;2.38;97.79;99107.41;5030667;28;20204;-58
2023/04/06 02:54:20;;;;;;;0.67;0.67;;;;;;;2.31;98.58;99115.00;5031095;28;20232;-59
2023/04/06 02:56:47;;;;;;;0.73;0.73;;;;;;;2.24;98.69;99105.75;5030748;28;20204;-58
2023/04/06 02:59:14;;;;;;;1.07;0.97;;;;;;;2.23;98.54;99115.00;5030897;28;20263;-58
2023/04/06 03:01:41;;;;;;;0.70;0.70;;;;;;;2.11;98.57;99088.06;5030714;28;20220;-60
2023/04/06 03:04:07;;;;;;;0.80;0.80;;;;;;;2.24;98.60;99105.75;5026418;28;20241;-58
2023/04/06 03:06:36;;;;;;;1.17;1.17;;;;;;;2.20;98.77;99111.66;5020520;28;20667;-58
2023/04/06 03:09:02;;;;;;;0.90;0.90;;;;;;;2.20;98.98;99102.38;5021856;28;20251;-57
2023/04/06 03:11:29;;;;;;;0.83;0.83;;;;;;;2.21;98.90;99108.28;5023255;28;20212;-58
2023/04/06 03:13:56;;;;;;;0.83;0.83;;;;;;;2.21;99.40;99104.06;5028146;28;20213;-57
2023/04/06 03:16:23;;;;;;;0.80;0.80;;;;;;;2.13;99.51;99099.00;5021851;28;20198;-58
2023/04/06 03:18:49;;;;;;;1.00;1.00;;;;;;;2.16;99.38;99097.34;5018478;28;20205;-58
2023/04/06 03:21:16;;;;;;;1.03;1.03;;;;;;;2.17;99.49;99099.00;5024528;28;20225;-58
2023/04/06 03:23:44;;;;;;;0.70;0.70;;;;;;;2.17;99.47;99101.53;5020057;28;20202;-58
2023/04/06 03:26:11;;;;;;;1.23;1.23;;;;;;;2.03;99.71;99079.66;5034196;28;20201;-58
2023/04/06 03:28:38;;;;;;;0.77;0.77;;;;;;;2.22;99.23;99109.97;5031356;28;20194;-58
2023/04/06 03:31:05;;;;;;;0.70;0.70;;;;;;;2.24;99.06;99105.75;5024173;28;20268;-59
2023/04/06 03:33:31;;;;;;;0.60;0.60;;;;;;;2.25;98.67;99104.91;5024369;28;20204;-57
2023/04/06 03:35:58;;;;;;;1.37;1.37;;;;;;;2.24;98.76;99100.69;5032621;28;20666;-57
2023/04/06 03:38:25;;;;;;;0.60;0.60;;;;;;;2.21;98.76;99103.22;5021661;28;20268;-58
2023/04/06 03:40:53;;;;;;;0.70;0.70;;;;;;;2.06;99.31;99079.66;5020290;28;20693;-58
2023/04/06 03:43:20;;;;;;;0.80;0.80;;;;;;;2.10;99.08;99081.31;5025647;28;20225;-58
2023/04/06 03:45:46;;;;;;;0.80;0.80;;;;;;;2.24;98.82;99103.22;5016800;28;20678;-59
2023/04/06 03:48:13;;;;;;;0.73;0.73;;;;;;;2.28;98.72;99104.91;5025377;28;20204;-59
2023/04/06 03:50:40;;;;;;;0.70;0.70;;;;;;;2.29;98.75;99096.47;5024394;28;20205;-58
2023/04/06 03:53:07;;;;;;;0.70;0.70;;;;;;;2.30;98.73;99098.97;5026164;28;20194;-58
2023/04/06 03:55:33;;;;;;;0.80;0.80;;;;;;;2.28;98.44;99080.47;5027750;28;20673;-59
2023/04/06 03:58:02;;;;;;;1.10;1.10;;;;;;;2.39;98.46;99093.91;5021888;28;20260;-57
2023/04/06 04:00:29;;;;;;;0.80;0.80;;;;;;;2.42;98.73;99085.50;5027800;28;20236;-58
2023/04/06 04:02:55;;;;;;;0.60;0.60;;;;;;;2.37;98.64;99090.53;5027805;28;20674;-58
2023/04/06 04:05:24;;;;;;;0.73;0.73;;;;;;;2.47;98.94;99101.47;5020124;28;20705;-58
2023/04/06 04:07:51;;;;;;;0.80;0.80;;;;;;;2.53;99.06;99111.56;5023327;28;20689;-58
2023/04/06 04:10:18;;;;;;;0.73;0.73;;;;;;;2.56;99.58;99111.56;5022799;28;20670;-58
2023/04/06 04:12:45;;;;;;;0.90;0.90;;;;;;;2.62;99.86;99117.44;5025001;28;20197;-57
2023/04/06 04:15:13;;;;;;;0.80;0.80;;;;;;;2.72;99.46;99113.19;5030911;28;20208;-58
2023/04/06 04:17:40;;;;;;;0.70;0.70;;;;;;;2.82;98.22;99104.72;5022320;28;20670;-58
2023/04/06 04:20:08;;;;;;;0.80;0.80;;;;;;;2.91;97.99;99112.28;5032044;28;20206;-58
2023/04/06 04:22:35;;;;;;;0.60;0.60;;;;;;;2.94;97.44;99109.75;5030804;28;20713;-59
2023/04/06 04:25:01;;;;;;;1.53;1.13;;;;;;;2.98;97.12;99116.47;5017564;28;20209;-58
2023/04/06 04:27:28;;;;;;;0.80;0.80;;;;;;;3.03;97.55;99109.72;5023488;28;20205;-57
2023/04/06 04:29:55;;;;;;;0.63;0.63;;;;;;;3.04;97.39;99111.38;5026956;28;20206;-58
2023/04/06 04:32:27;;;;;;;0.80;0.80;;;;;;;3.13;96.57;99111.34;5025600;28;20206;-58
2023/04/06 04:34:53;;;;;;;0.73;0.73;;;;;;;3.15;96.78;99114.72;5024733;28;20201;-58
2023/04/06 04:37:20;;;;;;;0.60;0.60;;;;;;;3.16;96.98;99116.41;5024624;28;20216;-57
2023/04/06 04:39:47;;;;;;;0.60;0.60;;;;;;;3.23;96.49;99119.75;5026884;28;22238;-58
2023/04/06 04:42:14;;;;;;;0.73;0.73;;;;;;;3.29;96.02;99113.81;5027773;28;20218;-58
2023/04/06 04:44:41;;;;;;;0.70;0.70;;;;;;;3.31;96.18;99109.56;5016900;28;20202;-58
2023/04/06 04:47:08;;;;;;;0.70;0.70;;;;;;;3.33;96.28;99106.16;5028418;28;20202;-58
2023/04/06 04:49:36;;;;;;;0.50;0.50;;;;;;;3.33;96.21;99102.81;5032704;28;20197;-58
2023/04/06 04:52:02;;;;;;;0.70;0.70;;;;;;;3.42;94.38;99107.81;5023214;28;20578;-57
2023/04/06 04:54:29;;;;;;;0.70;0.70;;;;;;;3.46;94.03;99099.31;5016933;28;20700;-58
2023/04/06 04:56:56;;;;;;;0.60;0.60;;;;;;;3.53;93.82;99100.97;5022744;28;20198;-58
2023/04/06 04:59:23;;;;;;;0.70;0.70;;;;;;;3.56;93.64;99111.09;5018130;28;20622;-58
2023/04/06 05:01:50;;;;;;;0.60;0.60;;;;;;;3.65;93.93;99116.13;5026113;28;20217;-58
2023/04/06 05:04:16;;;;;;;0.60;0.60;;;;;;;3.69;94.51;99112.69;5023814;28;20230;-58
2023/04/06 05:06:44;;;;;;;1.47;1.47;;;;;;;3.76;93.95;99116.84;5023031;28;20205;-58
2023/04/06 05:09:11;;;;;;;0.63;0.63;;;;;;;3.81;92.43;99115.16;5024468;28;20201;-58
2023/04/06 05:11:38;;;;;;;0.57;0.57;;;;;;;3.85;92.19;99115.94;5023150;28;20200;-58
2023/04/06 05:14:06;;;;;;;0.70;0.70;;;;;;;3.94;92.11;99119.25;5023504;28;20205;-58
2023/04/06 05:16:33;;;;;;;0.70;0.70;;;;;;;3.98;92.23;99115.84;5028564;28;20213;-58
2023/04/06 05:19:00;;;;;;;0.60;0.60;;;;;;;4.05;92.98;99116.63;5019746;28;20729;-58
2023/04/06 05:21:27;;;;;;;0.60;0.60;;;;;;;3.99;92.76;99084.56;5025985;28;20213;-58
2023/04/06 05:23:56;;;;;;;0.80;0.80;;;;;;;4.20;92.64;99106.34;5022003;28;20229;-59
2023/04/06 05:26:22;;;;;;;1.13;1.13;;;;;;;4.28;92.16;99103.72;5025384;28;20670;-58
2023/04/06 05:28:49;;;;;;;0.77;0.77;;;;;;;4.35;92.00;99095.22;5028481;28;20212;-58
2023/04/06 05:31:16;;;;;;;0.87;0.87;;;;;;;4.40;91.90;99106.13;5024340;28;20206;-58
2023/04/06 05:33:43;;;;;;;0.70;0.70;;;;;;;4.49;91.04;99098.44;5019849;28;20190;-58
2023/04/06 05:36:10;;;;;;;0.70;0.70;;;;;;;4.59;90.40;99100.00;5022536;28;20208;-58
2023/04/06 05:38:36;;;;;;;0.90;0.90;;;;;;;4.65;90.83;99099.97;5021209;28;20297;-59
2023/04/06 05:41:05;;;;;;;0.63;0.63;;;;;;;4.72;89.46;99096.47;5017996;28;20213;-58
2023/04/06 05:43:32;;;;;;;0.70;0.70;;;;;;;4.76;88.92;99103.22;5024459;28;20252;-58
2023/04/06 05:45:59;;;;;;;0.80;0.80;;;;;;;4.83;88.58;99092.13;5023094;28;20202;-59
2023/04/06 05:48:25;;;;;;;0.80;0.80;;;;;;;4.93;88.52;99096.22;5025901;28;20292;-58
2023/04/06 05:50:52;;;;;;;0.73;0.73;;;;;;;5.04;88.94;99089.31;5024027;28;20296;-59
2023/04/06 05:53:20;;;;;;;0.70;0.70;;;;;;;4.93;88.62;99060.69;5015583;28;20201;-58
2023/04/06 05:55:47;;;;;;;0.60;0.60;;;;;;;5.18;87.59;99079.81;5020836;28;20625;-58
2023/04/06 05:58:17;;;;;;;0.60;0.60;;;;;;;5.38;87.46;99089.69;5023804;28;20637;-59
2023/04/06 06:00:45;;;;;;;0.70;0.70;;;;;;;5.50;86.18;99078.50;5023954;28;20624;-58
2023/04/06 06:03:12;;;;;;;0.60;0.60;;;;;;;5.72;86.88;99079.84;5028131;28;20770;-58
2023/04/06 06:05:39;;;;;;;0.60;0.60;;;;;;;5.91;85.10;99073.66;5020534;28;20193;-59
2023/04/06 06:08:06;;;;;;;0.50;0.50;;;;;;;6.04;83.77;99081.91;5025381;28;20292;-59
2023/04/06 06:10:33;;;;;;;0.83;0.83;;;;;;;6.18;83.42;99078.25;5024065;28;20237;-58
2023/04/06 06:13:00;;;;;;;0.60;0.60;;;;;;;6.33;82.30;99065.25;5020307;28;20194;-58
2023/04/06 06:15:28;;;;;;;0.60;0.60;;;;;;;6.48;83.32;99069.22;5026225;28;20209;-58
2023/04/06 06:17:55;;;;;;;0.67;0.67;;;;;;;6.70;81.98;99067.09;5029746;28;20255;-59
2023/04/06 06:20:22;;;;;;;0.70;0.70;;;;;;;6.93;83.38;99066.63;5022154;28;20218;-59
2023/04/06 06:22:49;;;;;;;0.70;0.70;;;;;;;7.20;81.08;99072.00;5019989;28;20325;-59
2023/04/06 06:25:16;;;;;;;1.00;1.00;;;;;;;7.30;79.60;99086.19;5026207;28;20201;-59
2023/04/06 06:27:43;;;;;;;0.50;0.50;;;;;;;7.34;80.17;99089.50;5020587;28;20293;-59
2023/04/06 06:30:10;;;;;;;0.80;0.80;;;;;;;7.45;78.36;99079.06;5016428;28;20220;-59
2023/04/06 06:32:38;;;;;;;0.60;0.60;;;;;;;7.59;79.49;99069.41;5021348;28;20209;-58
2023/04/06 06:35:05;;;;;;;0.60;0.60;;;;;;;7.75;78.54;99076.66;5023281;28;20201;-59
2023/04/06 06:37:32;;;;;;;1.40;1.40;;;;;;;7.76;77.42;99077.47;5024922;28;20197;-59
2023/04/06 06:39:59;;;;;;;1.10;1.10;;;;;;;7.80;78.25;99067.16;5026281;28;20197;-60
2023/04/06 06:42:26;;;;;;;0.70;0.70;;;;;;;8.05;79.69;99069.94;5019710;28;20465;-62
2023/04/06 06:44:53;;;;;;;0.80;0.80;;;;;;;8.11;76.78;99068.97;5021233;28;20201;-61
2023/04/06 06:47:19;;;;;;;0.60;0.60;;;;;;;8.37;78.51;99077.66;5015095;28;20206;-62
2023/04/06 06:49:48;;;;;;;0.53;0.53;;;;;;;8.53;76.12;99067.03;5011959;28;20203;-62
2023/04/06 06:52:14;;;;;;;0.80;0.80;;;;;;;8.54;75.45;99059.31;5013708;28;20202;-62
2023/04/06 06:54:41;;;;;;;0.57;0.57;;;;;;;8.87;76.40;99067.75;5022692;28;20296;-62
2023/04/06 06:57:08;;;;;;;0.50;0.50;;;;;;;8.86;74.46;99071.19;5017777;28;20205;-62
2023/04/06 06:59:35;;;;;;;0.47;0.47;;;;;;;8.94;75.36;99084.59;5024529;28;20578;-62
2023/04/06 07:02:01;;;;;;;0.87;0.87;;;;;;;9.04;74.76;99080.06;5014844;28;20606;-62
2023/04/06 07:04:28;;;;;;;0.77;0.77;;;;;;;9.17;75.41;99077.09;5018688;28;20601;-62
2023/04/06 07:06:56;;;;;;;0.40;0.40;;;;;;;9.23;72.63;99076.94;5026882;28;20630;-62
2023/04/06 07:09:23;;;;;;;0.47;0.47;;;;;;;9.32;73.55;99089.44;5032968;28;20299;-63
2023/04/06 07:11:50;;;;;;;0.67;0.67;;;;;;;9.46;72.68;99079.63;5033465;28;20220;-63
2023/04/06 07:14:17;;;;;;;0.50;0.50;;;;;;;9.41;71.72;99083.19;5026810;28;20197;-62
2023/04/06 07:16:46;;;;;;;0.70;0.70;;;;;;;9.43;71.81;99081.44;5030392;28;20201;-63
2023/04/06 07:19:13;;;;;;;0.47;0.47;;;;;;;9.55;73.25;99078.50;5020337;28;20204;-63
2023/04/06 07:21:40;;;;;;;0.70;0.70;;;;;;;9.55;72.99;99072.53;5017390;28;20194;-62
2023/04/06 07:24:08;;;;;;;0.70;0.70;;;;;;;9.71;71.92;99078.84;5013828;28;20305;-62
2023/04/06 07:26:35;;;;;;;0.70;0.70;;;;;;;10.03;74.05;99070.97;5013846;28;20202;-63
2023/04/06 07:29:02;;;;;;;0.60;0.60;;;;;;;10.11;70.22;99080.97;5013726;28;20217;-63
2023/04/06 07:31:29;;;;;;;0.50;0.50;;;;;;;10.23;72.19;99078.84;5013640;28;20670;-63
2023/04/06 07:33:56;;;;;;;0.80;0.80;;;;;;;10.33;70.37;99079.38;5022898;28;20582;-64
2023/04/06 07:36:22;;;;;;;1.07;1.07;;;;;;;10.50;71.72;99077.88;5033269;28;20205;-63
2023/04/06 07:38:49;;;;;;;0.60;0.60;;;;;;;10.69;72.08;99074.69;5033458;28;20205;-63
2023/04/06 07:41:17;;;;;;;0.40;0.40;;;;;;;10.89;71.38;99079.91;5021448;28;20232;-63
2023/04/06 07:43:45;;;;;;;0.50;0.50;;;;;;;10.94;68.66;99080.59;5014763;28;20688;-63
2023/04/06 07:46:11;;;;;;;1.13;1.13;;;;;;;11.14;68.61;99070.44;5021571;28;20976;-64
2023/04/06 07:48:38;;;;;;;0.50;0.50;;;;;;;11.08;67.94;99078.38;5013813;28;20195;-63
2023/04/06 07:51:06;;;;;;;0.50;0.50;;;;;;;11.25;70.15;99076.00;5021697;28;20201;-63
2023/04/06 07:53:33;;;;;;;0.43;0.43;;;;;;;11.50;71.62;99084.41;5021391;28;20198;-63
2023/04/06 07:56:00;;;;;;;0.43;0.43;;;;;;;11.86;70.02;99074.44;5020419;28;20206;-63
2023/04/06 07:58:28;;;;;;;0.60;0.60;;;;;;;11.99;69.15;99073.06;5014897;28;20241;-63
2023/04/06 08:00:55;;;;;;;0.50;0.50;;;;;;;12.00;67.58;99068.75;5021781;28;20206;-63
2023/04/06 08:03:25;;;;;;;0.50;0.50;;;;;;;11.83;66.37;99078.88;5014434;28;20673;-63
2023/04/06 08:05:52;;;;;;;0.60;0.60;;;;;;;11.76;67.12;99077.47;5012688;28;20307;-64
2023/04/06 08:08:20;;;;;;;0.50;0.50;;;;;;;11.88;66.70;99071.84;5019159;28;20288;-63
2023/04/06 08:10:47;;;;;;;0.40;0.40;;;;;;;11.75;64.86;99053.53;5027332;28;20621;-64
2023/04/06 08:13:14;;;;;;;0.57;0.57;;;;;;;11.93;64.47;99069.91;5032455;28;20193;-63
2023/04/06 08:15:42;;;;;;;0.50;0.50;;;;;;;11.86;65.43;99060.78;5031932;28;20201;-63
2023/04/06 08:18:09;;;;;;;0.50;0.50;;;;;;;11.93;70.26;99054.50;5023120;28;20194;-64
2023/04/06 08:20:36;;;;;;;0.50;0.50;;;;;;;12.17;68.52;99055.22;5017695;28;20252;-64
2023/04/06 08:23:03;;;;;;;0.40;0.40;;;;;;;12.27;65.62;99052.19;5012714;28;20214;-64
2023/04/06 08:25:30;;;;;;;0.40;0.40;;;;;;;12.14;64.60;99061.31;5020652;28;20750;-63
2023/04/06 08:27:57;;;;;;;0.50;0.50;;;;;;;12.43;66.37;99053.22;5017827;28;20201;-64
2023/04/06 08:30:24;;;;;;;0.50;0.50;;;;;;;12.39;64.61;99049.09;5030797;28;20197;-64
2023/04/06 08:32:52;;;;;;;0.70;0.70;;;;;;;12.52;63.63;99063.09;5031499;28;21336;-63
2023/04/06 08:35:18;;;;;;;0.50;0.50;;;;;;;12.59;66.05;99056.78;5015253;28;20198;-64
2023/04/06 08:37:45;;;;;;;0.60;0.60;;;;;;;12.62;64.75;99048.09;5031591;28;20209;-64
2023/04/06 08:40:13;;;;;;;0.67;0.67;;;;;;;12.64;62.66;99052.28;5031697;28;20202;-64
2023/04/06 08:42:45;;;;;;;0.60;0.60;;;;;;;12.84;65.39;99053.13;5029699;28;20228;-64
2023/04/06 08:45:12;;;;;;;0.63;0.63;;;;;;;12.83;65.19;99042.00;5018697;28;20666;-64
2023/04/06 08:47:39;;;;;;;0.47;0.47;;;;;;;12.77;62.24;99041.44;5018208;28;20205;-64
2023/04/06 08:50:11;;;;;;;0.50;0.50;;;;;;;12.63;60.35;99045.44;5023636;28;20837;-62
2023/04/06 08:52:38;;;;;;;0.50;0.50;;;;;;;12.70;63.26;99040.06;5020450;28;20479;-60
2023/04/06 08:55:06;;;;;;;0.47;0.47;;;;;;;12.80;63.46;99047.28;5025979;28;20198;-61
2023/04/06 08:57:33;;;;;;;0.60;0.60;;;;;;;12.77;63.03;99033.72;5019589;28;20198;-61
2023/04/06 09:00:02;;;;;;;0.40;0.40;;;;;;;12.97;64.58;99020.78;5019750;28;20202;-60
2023/04/06 09:02:28;;;;;;;0.57;0.57;;;;;;;12.92;64.17;98999.59;5019965;28;20260;-61
2023/04/06 09:04:55;;;;;;;0.40;0.40;;;;;;;13.18;62.19;99022.41;5023575;28;20697;-60
2023/04/06 09:07:24;;;;;;;0.90;0.90;;;;;;;13.05;61.92;99016.16;5022689;28;20704;-61
2023/04/06 09:09:51;;;;;;;0.53;0.53;;;;;;;13.14;61.41;99020.88;5026298;28;20216;-61
2023/04/06 09:12:26;;;;;;;0.50;0.50;;;;;;;13.28;64.27;99017.69;5021147;28;20202;-61
2023/04/06 09:14:55;;;;;;;0.50;0.50;;;;;;;13.43;63.98;99011.78;5020123;28;20196;-60
2023/04/06 09:17:22;;;;;;;0.30;0.30;;;;;;;13.71;67.09;99003.56;5023661;28;20201;-68
2023/04/06 09:19:49;;;;;;;0.50;0.50;;;;;;;13.79;62.67;99009.19;5020039;28;20248;-65
2023/04/06 09:22:17;;;;;;;0.60;0.60;;;;;;;13.88;61.10;99001.00;5026408;28;20248;-65
2023/04/06 09:24:46;;;;;;;0.60;0.60;;;;;;;13.84;61.03;99007.19;5020630;28;20269;-62
2023/04/06 09:27:14;;;;;;;0.60;0.60;;;;;;;13.78;59.70;98992.03;5020676;28;20202;-61
2023/04/06 09:29:41;;;;;;;0.50;0.50;;;;;;;13.84;60.63;99004.63;5021715;28;20198;-61
2023/04/06 09:32:10;;;;;;;0.50;0.50;;;;;;;13.97;62.49;98998.78;5019879;28;20205;-61
2023/04/06 09:34:39;;;;;;;0.50;0.50;;;;;;;14.10;63.71;98983.53;5021838;28;20662;-60
2023/04/06 09:37:16;;;;;;;0.60;0.60;;;;;;;14.13;62.83;98988.53;5020350;28;20198;-62
2023/04/06 09:39:45;;;;;;;0.53;0.53;;;;;;;14.32;62.26;98988.41;5019948;28;20580;-60
2023/04/06 09:42:24;;;;;;;0.50;0.50;;;;;;;14.26;62.74;98997.28;5020546;28;20226;-62
2023/04/06 09:44:51;;;;;;;0.50;0.50;;;;;;;14.26;63.55;98984.41;5020978;28;20660;-61
2023/04/06 09:47:19;;;;;;;0.50;0.50;;;;;;;14.32;63.61;98973.78;5025434;28;20204;-61
2023/04/06 09:49:48;;;;;;;0.50;0.50;;;;;;;14.39;63.45;98970.00;5020423;28;20197;-61
2023/04/06 09:52:16;;;;;;;0.60;0.60;;;;;;;14.42;60.99;98976.72;5022404;28;20205;-61
2023/04/06 09:54:47;;;;;;;0.53;0.53;;;;;;;14.41;61.73;98972.50;5021870;28;20197;-62
2023/04/06 09:57:23;;;;;;;0.33;0.33;;;;;;;14.42;61.45;98980.16;5021799;28;20208;-61
2023/04/06 09:59:56;;;;;;;0.50;0.50;;;;;;;14.43;62.09;98981.81;5022290;28;20206;-60
2023/04/06 10:02:30;;;;;;;0.50;0.50;;;;;;;14.55;63.07;98976.00;5019599;28;20241;-61
2023/04/06 10:05:03;;;;;;;0.40;0.40;;;;;;;14.41;57.73;98963.00;5029458;28;20296;-61
2023/04/06 10:07:31;;;;;;;0.90;0.90;;;;;;;14.54;60.08;98968.38;5029770;28;20211;-61
2023/04/06 10:10:01;;;;;;;0.70;0.70;;;;;;;14.67;60.40;98970.19;5030309;28;20232;-61
2023/04/06 10:12:28;;;;;;;0.73;0.73;;;;;;;14.73;60.89;98973.38;5029989;28;20213;-61
2023/04/06 10:14:55;;;;;;;0.87;0.87;;;;;;;14.56;60.01;98967.38;5029562;28;20279;-61
2023/04/06 10:17:23;;;;;;;0.77;0.77;;;;;;;14.55;57.18;98970.84;5029925;28;21002;-61
2023/04/06 10:19:55;;;;;;;0.50;0.50;;;;;;;14.52;57.53;98965.88;5029868;28;20259;-61
2023/04/06 10:22:29;;;;;;;0.40;0.40;;;;;;;14.59;57.80;98974.09;5028655;28;20209;-61
2023/04/06 10:24:56;;;;;;;0.53;0.53;;;;;;;14.54;54.81;98964.03;5029499;28;20224;-61
2023/04/06 10:27:31;;;;;;;1.90;1.83;;;;;;;14.61;56.63;98965.38;5029879;28;20202;-60
2023/04/06 10:30:03;;;;;;;0.50;0.50;;;;;;;14.54;55.89;98964.03;5029965;28;20202;-61
2023/04/06 10:32:35;;;;;;;0.40;0.40;;;;;;;14.60;56.92;98953.38;5032218;28;20229;-61
2023/04/06 10:35:14;;;;;;;0.63;0.63;;;;;;;14.72;58.52;98954.47;5033606;28;20206;-61
2023/04/06 10:37:52;;;;;;;0.40;0.40;;;;;;;14.63;56.98;98948.09;5034139;28;20205;-61
2023/04/06 10:40:24;;;;;;;0.60;0.60;;;;;;;14.80;59.75;98944.56;5033863;28;20205;-61
2023/04/06 10:42:53;;;;;;;0.40;0.40;;;;;;;14.99;58.13;98949.56;5031509;28;20555;-61
2023/04/06 10:45:21;;;;;;;0.40;0.40;;;;;;;14.91;57.51;98937.06;5033562;28;20224;-60
2023/04/06 10:47:48;;;;;;;2.53;0.80;;;;;;;14.97;57.91;98931.56;5033997;28;20286;-61
2023/04/06 10:50:17;;;;;;;0.50;0.50;;;;;;;14.92;57.90;98927.59;5033867;28;20207;-61
2023/04/06 10:52:45;;;;;;;0.50;0.50;;;;;;;14.87;56.22;98937.31;5034245;28;21092;-61
2023/04/06 10:55:13;;;;;;;0.50;0.50;;;;;;;14.81;60.28;98923.00;5033706;28;20203;-61
2023/04/06 10:57:40;;;;;;;0.50;0.50;;;;;;;14.86;57.29;98917.63;5032767;28;20201;-61
2023/04/06 11:00:10;;;;;;;0.40;0.40;;;;;;;14.95;58.47;98922.25;5033355;28;20204;-60
2023/04/06 11:02:37;;;;;;;0.50;0.50;;;;;;;14.98;54.25;98927.25;5029941;28;20224;-61
2023/04/06 11:05:04;;;;;;;0.40;0.40;;;;;;;15.13;57.00;98918.63;5024147;28;20326;-61
2023/04/06 11:07:31;;;;;;;0.50;0.50;;;;;;;15.08;56.33;98924.06;5022316;28;20211;-61
2023/04/06 11:09:58;;;;;;;0.50;0.50;;;;;;;15.01;56.17;98909.00;5028602;28;20615;-61
2023/04/06 11:12:25;;;;;;;0.40;0.40;;;;;;;14.93;58.53;98913.75;5023246;28;20209;-61
2023/04/06 11:15:00;;;;;;;0.67;0.67;;;;;;;14.91;55.95;98916.44;5025749;28;20689;-61
2023/04/06 11:17:29;;;;;;;0.50;0.50;;;;;;;14.93;55.82;98913.75;5028125;28;20209;-61
2023/04/06 11:19:56;;;;;;;0.50;0.50;;;;;;;14.94;55.54;98892.19;5023609;28;20693;-62
2023/04/06 11:22:23;;;;;;;0.60;0.60;;;;;;;14.87;51.55;98924.41;5027152;28;20216;-61
2023/04/06 11:24:50;;;;;;;0.50;0.50;;;;;;;14.89;50.77;98912.28;5024101;28;20247;-61
2023/04/06 11:27:17;;;;;;;0.70;0.70;;;;;;;14.92;52.78;98907.78;5023983;28;20209;-61
2023/04/06 11:29:45;;;;;;;0.50;0.50;;;;;;;14.50;53.36;98864.53;5028772;28;20278;-61
2023/04/06 11:32:12;;;;;;;0.50;0.50;;;;;;;14.77;53.62;98898.28;5025039;28;20756;-61
2023/04/06 11:34:41;;;;;;;0.60;0.60;;;;;;;14.82;52.34;98900.63;5026399;28;20266;-61
2023/04/06 11:37:09;;;;;;;0.50;0.50;;;;;;;14.75;51.63;98904.44;5022163;28;20206;-62
2023/04/06 11:39:40;;;;;;;0.50;0.50;;;;;;;14.85;55.04;98884.97;5023270;28;20217;-61